Аэропорт: Уйташ. Махачкала

ICAO: URML

METAR:
2020-08-09 23:00:00
URML 092300Z 25003MPS 9999 NSC 23/18 Q1009 R32/01//70 NOSIG RMK QFE756/1008
METAR:
2020-08-09 20:00:00
TAF URML 092000Z 0921/1006 22003G10MPS 9999 SCT050CB TEMPO 0923/1004 3100 BR SCT013 SCT040CB